Time;durP1;ratioP1;P1;durP2;ratioP2;P2;SDS_P1;SDS_P2;PMS_P1;PMS_P2;Temp;Humidity;BMP_temperature;BMP_pressure;BME280_temperature;BME280_humidity;BME280_pressure;Samples;Min_cycle;Max_cycle;Signal;HPM_P1;HPM_P2
2023/02/07 07:28:10;;;;;;;23.73;9.55;;;;;;;;;;4982675;27;20417;-79
2023/02/07 07:41:20;;;;;;;26.08;10.15;;;;;;;;;;5068153;27;20450;-69
2023/02/07 07:59:40;;;;;;;30.43;13.57;;;;;;;;;;5998609;21;3808198;-77
2023/02/07 08:12:45;;;;;;;31.00;10.55;;;;;;;;;;4876031;27;1556807;-74
2023/02/07 08:18:15;;;;;;;27.38;10.02;;;;;;;;;;4980907;28;20134;-78
2023/02/07 08:20:50;;;;;;;26.63;9.63;;;;;;;;;;4901433;29;20074;-75
2023/02/07 08:39:10;;;;;;;26.23;9.13;;;;;;;;;;5042393;27;20430;-71
2023/02/07 08:51:55;;;;;;;28.30;10.18;;;;;;;;;;4833269;29;20056;-70
2023/02/07 08:54:39;;;;;;;25.38;9.73;;;;;;;;;;4840862;29;20056;-73
2023/02/07 08:57:10;;;;;;;26.52;9.27;;;;;;;;;;4948595;28;20045;-80
2023/02/07 08:59:38;;;;;;;32.35;9.95;;;;;;;;;;4983429;28;20057;-83
2023/02/07 09:02:13;;;;;;;22.40;9.65;;;;;;;;;;4962528;28;20112;-73
2023/02/07 09:04:42;;;;;;;28.00;10.50;;;;;;;;;;5005617;28;20056;-79
2023/02/07 09:07:18;;;;;;;25.60;8.88;;;;;;;;;;5000507;28;20068;-76
2023/02/07 09:09:55;;;;;;;28.58;9.65;;;;;;;;;;5016522;28;20075;-77
2023/02/07 09:12:27;;;;;;;24.67;9.30;;;;;;;;;;5001591;28;20132;-86
2023/02/07 09:14:54;;;;;;;28.20;10.45;;;;;;;;;;4986613;28;20073;-78
2023/02/07 09:17:24;;;;;;;24.33;9.38;;;;;;;;;;5001655;28;20143;-73
2023/02/07 09:19:51;;;;;;;23.75;8.60;;;;;;;;;;5053845;28;20163;-73
2023/02/07 09:22:18;;;;;;;24.65;9.10;;;;;;;;;;4993523;28;21055;-77
2023/02/07 09:24:47;;;;;;;26.98;8.50;;;;;;;;;;5003379;28;20230;-76
2023/02/07 09:32:30;;;;;;;24.92;9.63;;;;;;;;;;5042738;27;20394;-74
2023/02/07 09:34:59;;;;;;;27.10;9.63;;;;;;;;;;4933936;28;20054;-70
2023/02/07 09:37:37;;;;;;;24.38;9.07;;;;;;;;;;4946940;28;20059;-73
2023/02/07 09:40:10;;;;;;;21.40;9.00;;;;;;;;;;5021601;28;20139;-71
2023/02/07 09:42:43;;;;;;;28.05;9.13;;;;;;;;;;5040491;28;20047;-74
2023/02/07 09:45:21;;;;;;;29.77;10.18;;;;;;;;;;5021109;28;20057;-69
2023/02/07 09:48:01;;;;;;;24.20;9.05;;;;;;;;;;4984506;28;20076;-71
2023/02/07 09:50:30;;;;;;;26.23;9.75;;;;;;;;;;5031181;28;20055;-72
2023/02/07 09:52:59;;;;;;;27.00;9.38;;;;;;;;;;4986390;28;20044;-75
2023/02/07 09:55:30;;;;;;;24.85;9.52;;;;;;;;;;5002437;28;20049;-69
2023/02/07 09:58:09;;;;;;;25.27;9.45;;;;;;;;;;4947636;28;20112;-72
2023/02/07 10:00:37;;;;;;;23.45;9.00;;;;;;;;;;5032329;28;20053;-71
2023/02/07 10:03:11;;;;;;;21.65;9.13;;;;;;;;;;4973691;28;20077;-70
2023/02/07 10:05:42;;;;;;;23.58;8.93;;;;;;;;;;4978653;28;20042;-76
2023/02/07 10:13:32;;;;;;;30.95;10.07;;;;;;;;;;5069379;27;20491;-73
2023/02/07 10:16:09;;;;;;;27.00;9.30;;;;;;;;;;5000606;28;20061;-68
2023/02/07 10:23:54;;;;;;;23.17;9.43;;;;;;;;;;4915602;28;20242;-76
2023/02/07 10:26:36;;;;;;;23.70;9.70;;;;;;;;;;4940150;28;20137;-77
2023/02/07 10:29:18;;;;;;;22.95;9.07;;;;;;;;;;4942581;28;20081;-71
2023/02/07 10:31:57;;;;;;;21.63;8.75;;;;;;;;;;5020624;28;20048;-77
2023/02/07 10:34:26;;;;;;;22.92;9.57;;;;;;;;;;5024248;27;20063;-75
2023/02/07 10:44:28;;;;;;;25.33;9.18;;;;;;;;;;5007561;27;1482824;-71
2023/02/07 10:47:07;;;;;;;22.63;9.50;;;;;;;;;;5001443;28;20045;-74
2023/02/07 10:49:36;;;;;;;25.13;9.77;;;;;;;;;;5079046;28;20113;-76
2023/02/07 10:52:06;;;;;;;23.52;9.02;;;;;;;;;;5047526;28;20197;-76
2023/02/07 10:54:48;;;;;;;25.85;8.95;;;;;;;;;;5070482;28;20238;-74
2023/02/07 10:57:19;;;;;;;21.42;8.82;;;;;;;;;;5005213;28;20091;-76
2023/02/07 10:59:57;;;;;;;23.77;8.93;;;;;;;;;;5079618;28;20081;-72
2023/02/07 11:02:47;;;;;;;25.30;9.70;;;;;;;;;;5076981;28;20059;-71
2023/02/07 11:05:44;;;;;;;27.48;9.35;;;;;;;;;;5039839;28;20181;-69
2023/02/07 11:10:37;;;;;;;25.83;9.40;;;;;;;;;;5009045;28;20136;-70
2023/02/07 11:13:04;;;;;;;26.25;9.23;;;;;;;;;;5087250;28;20137;-70
2023/02/07 11:16:00;;;;;;;25.40;8.52;;;;;;;;;;5046180;28;20127;-71
2023/02/07 11:18:36;;;;;;;24.70;8.50;;;;;;;;;;4946745;28;20115;-67
2023/02/07 11:21:04;;;;;;;23.98;9.00;;;;;;;;;;4989132;28;20051;-68
2023/02/07 11:23:36;;;;;;;21.95;8.73;;;;;;;;;;5002254;28;20128;-69
2023/02/07 11:26:05;;;;;;;21.45;8.38;;;;;;;;;;4998500;28;20318;-68
2023/02/07 11:28:35;;;;;;;26.67;9.05;;;;;;;;;;5039411;28;20088;-66
2023/02/07 11:31:08;;;;;;;19.75;8.05;;;;;;;;;;5014045;28;20114;-73
2023/02/07 11:33:38;;;;;;;23.08;8.23;;;;;;;;;;4989317;28;20060;-72
2023/02/07 11:36:14;;;;;;;21.52;8.38;;;;;;;;;;4974952;28;20108;-74
2023/02/07 11:43:59;;;;;;;22.02;9.02;;;;;;;;;;5051555;27;20139;-73
2023/02/07 11:46:38;;;;;;;21.52;7.90;;;;;;;;;;5013808;28;20132;-70
2023/02/07 11:49:07;;;;;;;21.00;8.27;;;;;;;;;;4911241;28;20111;-72
2023/02/07 11:51:35;;;;;;;22.13;8.52;;;;;;;;;;4916213;28;20130;-72
2023/02/07 11:54:05;;;;;;;24.23;8.63;;;;;;;;;;4936136;28;20103;-73
2023/02/07 11:56:34;;;;;;;25.17;8.27;;;;;;;;;;4963443;28;20046;-74
2023/02/07 11:59:01;;;;;;;;;;;;;;;;;;4976430;28;20061;-73
2023/02/07 12:01:32;;;;;;;16.87;6.80;;;;;;;;;;4968150;28;19925;-70
2023/02/07 12:04:07;;;;;;;22.40;7.68;;;;;;;;;;4973558;28;20040;-71
2023/02/07 12:06:36;;;;;;;16.15;6.15;;;;;;;;;;5010551;28;20089;-74
2023/02/07 12:09:32;;;;;;;19.38;6.82;;;;;;;;;;4963953;28;20041;-72
2023/02/07 12:12:12;;;;;;;20.70;7.22;;;;;;;;;;4991813;28;20057;-75
2023/02/07 12:14:44;;;;;;;19.48;7.60;;;;;;;;;;4944199;28;20139;-76
2023/02/07 12:17:28;;;;;;;;;;;;;;;;;;;;;
2023/02/07 12:22:56;;;;;;;20.08;7.72;;;;;;;;;;5048116;27;20574;-71
2023/02/07 12:25:28;;;;;;;17.13;7.35;;;;;;;;;;5007194;28;20052;-71
2023/02/07 12:30:46;;;;;;;18.25;6.65;;;;;;;;;;4978346;27;20445;-71
2023/02/07 12:33:19;;;;;;;17.77;6.53;;;;;;;;;;4923248;28;20042;-75
2023/02/07 12:41:15;;;;;;;15.02;5.75;;;;;;;;;;5048904;27;20494;-74
2023/02/07 12:43:51;;;;;;;23.45;6.85;;;;;;;;;;4946680;28;20102;-72
2023/02/07 12:51:19;;;;;;;20.80;5.72;;;;;;;;;;4976398;28;20507;-80
2023/02/07 13:02:54;;;;;;;16.30;5.10;;;;;;;;;;4927913;28;20435;-80
2023/02/07 15:38:16;;;;;;;12.77;5.70;;;;;;;;;;5909870;22;5533764;-72
2023/02/07 16:16:39;;;;;;;;;;;;;;;;;;;;;
2023/02/07 17:52:55;;;;;;;11.15;5.15;;;;;;;;;;6073551;22;2183637;-72
2023/02/07 17:55:23;;;;;;;13.05;5.68;;;;;;;;;;5980027;23;20047;-73
2023/02/07 18:46:18;;;;;;;14.20;6.05;;;;;;;;;;6145979;22;3441085;-72
2023/02/07 18:54:20;;;;;;;11.25;5.18;;;;;;;;;;5007396;28;21174;-73
2023/02/07 18:56:56;;;;;;;14.07;5.60;;;;;;;;;;4935681;28;20321;-74
2023/02/07 19:04:57;;;;;;;15.93;6.38;;;;;;;;;;5018942;27;20590;-73
2023/02/07 19:07:26;;;;;;;15.07;6.63;;;;;;;;;;4922875;28;20055;-73
2023/02/07 19:09:55;;;;;;;13.05;6.15;;;;;;;;;;4872024;28;20059;-71
2023/02/07 19:56:07;;;;;;;;;;;;;;;;;;;;;
2023/02/07 20:36:23;;;;;;;18.63;7.40;;;;;;;;;;6101487;22;21546;-71
2023/02/07 20:47:21;;;;;;;;;;;;;;;;;;;;;
2023/02/07 20:58:09;;;;;;;22.45;8.57;;;;;;;;;;4786043;29;20093;-74
2023/02/07 21:06:23;;;;;;;;;;;;;;;;;;;;;
2023/02/07 21:27:45;;;;;;;17.63;7.63;;;;;;;;;;4820303;29;20052;-72
2023/02/07 21:36:39;;;;;;;19.23;8.10;;;;;;;;;;4994757;28;20485;-73
2023/02/07 22:19:38;;;;;;;25.00;8.30;;;;;;;;;;4993770;27;20486;-71
2023/02/07 22:22:06;;;;;;;17.02;7.78;;;;;;;;;;4917010;28;20077;-75
2023/02/07 22:27:26;;;;;;;15.38;6.85;;;;;;;;;;5065454;27;20483;-69
2023/02/07 22:29:55;;;;;;;18.33;7.93;;;;;;;;;;4935372;28;20046;-73
2023/02/07 22:32:25;;;;;;;19.73;7.95;;;;;;;;;;4973340;28;20238;-75
2023/02/07 22:34:52;;;;;;;18.13;7.43;;;;;;;;;;4963049;28;20053;-74
2023/02/07 22:37:39;;;;;;;15.07;7.20;;;;;;;;;;4936047;28;20054;-72
2023/02/07 22:42:53;;;;;;;20.38;8.35;;;;;;;;;;4871337;28;20059;-76
2023/02/07 22:45:24;;;;;;;17.63;7.40;;;;;;;;;;4863029;28;20066;-72
2023/02/07 22:53:32;;;;;;;17.02;7.70;;;;;;;;;;4906595;28;20105;-73
2023/02/07 22:56:00;;;;;;;15.00;7.15;;;;;;;;;;4893818;28;20055;-73
2023/02/07 23:01:18;;;;;;;17.30;7.70;;;;;;;;;;4882990;28;20050;-72
2023/02/07 23:03:54;;;;;;;16.38;7.00;;;;;;;;;;4996901;28;20044;-72
2023/02/07 23:11:49;;;;;;;16.15;7.53;;;;;;;;;;5009119;27;20517;-73
2023/02/07 23:14:19;;;;;;;15.10;7.20;;;;;;;;;;4901682;28;20238;-70
2023/02/07 23:16:48;;;;;;;17.77;7.78;;;;;;;;;;4904814;28;20176;-74
2023/02/07 23:19:16;;;;;;;15.30;6.78;;;;;;;;;;4968038;28;20058;-72
2023/02/07 23:21:43;;;;;;;13.43;6.80;;;;;;;;;;4938537;28;20054;-72
2023/02/07 23:24:15;;;;;;;18.58;7.75;;;;;;;;;;4915538;28;20325;-72
2023/02/07 23:26:45;;;;;;;17.73;7.82;;;;;;;;;;4939728;28;20557;-69
2023/02/07 23:29:24;;;;;;;18.33;7.28;;;;;;;;;;4928004;28;20145;-76
2023/02/07 23:32:15;;;;;;;18.10;7.32;;;;;;;;;;4928288;28;20261;-73
2023/02/07 23:34:44;;;;;;;17.90;7.90;;;;;;;;;;4903119;28;20055;-76
2023/02/07 23:39:41;;;;;;;17.48;7.55;;;;;;;;;;4857136;29;20080;-70
2023/02/07 23:42:18;;;;;;;14.52;6.57;;;;;;;;;;4910452;28;21055;-73
2023/02/07 23:44:49;;;;;;;19.92;7.85;;;;;;;;;;4960038;28;20058;-69
2023/02/07 23:47:16;;;;;;;17.05;7.30;;;;;;;;;;4972351;28;20064;-75
2023/02/07 23:49:50;;;;;;;14.70;7.28;;;;;;;;;;5027979;28;20149;-72
2023/02/07 23:52:21;;;;;;;16.35;7.10;;;;;;;;;;4984998;28;20059;-72
2023/02/07 23:54:50;;;;;;;15.65;7.30;;;;;;;;;;4963571;28;20047;-73
2023/02/07 23:57:18;;;;;;;16.73;7.50;;;;;;;;;;4980558;28;20054;-72
2023/02/07 23:59:48;;;;;;;14.77;7.07;;;;;;;;;;4982267;28;20057;-69
